Time;durP1;ratioP1;P1;durP2;ratioP2;P2;SDS_P1;SDS_P2;PMS_P1;PMS_P2;Temp;Humidity;BMP_temperature;BMP_pressure;BME280_temperature;BME280_humidity;BME280_pressure;Samples;Min_cycle;Max_cycle;Signal;HPM_P1;HPM_P2
2022/09/16 00:01:46;;;;;;;;;;;14.20;77.40;;;;;;5044078;28;19912;-82
2022/09/16 00:04:12;;;;;;;;;;;14.10;77.90;;;;;;5050646;28;19913;-82
2022/09/16 00:06:37;;;;;;;;;;;14.10;77.80;;;;;;5054210;28;19913;-83
2022/09/16 00:09:03;;;;;;;;;;;14.10;77.70;;;;;;5047254;28;19992;-82
2022/09/16 00:11:33;;;;;;;;;;;14.10;78.00;;;;;;5052434;28;19916;-82
2022/09/16 00:13:58;;;;;;;;;;;14.00;78.30;;;;;;5051446;28;19913;-82
2022/09/16 00:16:25;;;;;;;;;;;14.10;77.80;;;;;;5050748;28;19913;-83
2022/09/16 00:18:54;;;;;;;;;;;14.10;78.30;;;;;;5048380;28;19913;-82
2022/09/16 00:21:20;;;;;;;;;;;14.10;78.00;;;;;;5047076;28;19920;-82
2022/09/16 00:23:46;;;;;;;;;;;14.10;78.10;;;;;;5052415;28;20043;-82
2022/09/16 00:26:11;;;;;;;;;;;14.10;78.60;;;;;;5039044;28;19919;-82
2022/09/16 00:28:37;;;;;;;;;;;14.10;77.90;;;;;;5049699;28;19970;-82
2022/09/16 00:31:02;;;;;;;;;;;14.10;78.50;;;;;;5051541;28;19970;-83
2022/09/16 00:33:28;;;;;;;;;;;14.10;78.80;;;;;;5051269;28;19913;-83
2022/09/16 00:36:13;;;;;;;;;;;14.10;78.40;;;;;;5051373;28;19919;-82
2022/09/16 00:38:39;;;;;;;;;;;14.10;78.40;;;;;;5048797;28;19932;-83
2022/09/16 00:41:05;;;;;;;;;;;14.10;78.70;;;;;;5049090;28;19943;-82
2022/09/16 00:43:46;;;;;;;;;;;14.10;78.60;;;;;;5046834;28;19913;-83
2022/09/16 00:46:11;;;;;;;;;;;14.20;78.70;;;;;;5061099;28;19952;-82
2022/09/16 00:48:37;;;;;;;;;;;14.10;78.30;;;;;;5048400;28;19951;-82
2022/09/16 00:51:03;;;;;;;;;;;14.10;78.70;;;;;;5041469;28;20402;-82
2022/09/16 00:53:34;;;;;;;;;;;14.00;78.70;;;;;;5047518;28;19955;-83
2022/09/16 00:56:02;;;;;;;;;;;14.00;78.70;;;;;;5044536;28;19921;-82
2022/09/16 00:58:50;;;;;;;;;;;14.00;78.80;;;;;;5047883;28;20375;-82
2022/09/16 01:01:16;;;;;;;;;;;14.10;78.40;;;;;;5068026;28;19928;-83
2022/09/16 01:03:49;;;;;;;;;;;14.00;78.90;;;;;;5067483;28;19921;-83
2022/09/16 01:06:16;;;;;;;;;;;14.10;78.70;;;;;;5052184;28;19941;-82
2022/09/16 01:08:42;;;;;;;;;;;14.00;79.00;;;;;;5048803;28;20406;-83
2022/09/16 01:11:07;;;;;;;;;;;14.00;78.90;;;;;;5048090;28;19925;-82
2022/09/16 01:13:33;;;;;;;;;;;14.00;79.50;;;;;;5046301;28;19913;-82
2022/09/16 01:16:07;;;;;;;;;;;14.10;78.90;;;;;;5051349;28;20051;-83
2022/09/16 01:18:33;;;;;;;;;;;14.00;78.70;;;;;;5050631;28;19920;-82
2022/09/16 01:21:14;;;;;;;;;;;14.00;79.00;;;;;;5048104;28;19920;-82
2022/09/16 01:23:58;;;;;;;;;;;14.00;79.50;;;;;;5042309;28;19917;-82
2022/09/16 01:26:36;;;;;;;;;;;14.00;79.40;;;;;;5046812;28;19921;-83
2022/09/16 01:29:20;;;;;;;;;;;14.00;79.10;;;;;;5046421;28;19913;-82
2022/09/16 01:31:51;;;;;;;;;;;14.00;79.20;;;;;;5043913;28;19955;-83
2022/09/16 01:34:56;;;;;;;;;;;14.00;79.10;;;;;;5054944;28;19919;-81
2022/09/16 01:37:24;;;;;;;;;;;14.00;79.30;;;;;;5038993;28;19948;-82
2022/09/16 01:39:58;;;;;;;;;;;14.00;79.70;;;;;;5030974;28;19952;-82
2022/09/16 01:42:32;;;;;;;;;;;13.90;79.50;;;;;;5029125;28;19952;-83
2022/09/16 01:45:16;;;;;;;;;;;13.70;80.20;;;;;;5051967;28;19912;-83
2022/09/16 01:47:41;;;;;;;;;;;13.80;80.20;;;;;;5052119;28;20329;-83
2022/09/16 01:50:16;;;;;;;;;;;13.80;80.40;;;;;;5049147;28;19913;-83
2022/09/16 01:52:52;;;;;;;;;;;13.80;80.50;;;;;;5053757;28;19912;-82
2022/09/16 01:55:21;;;;;;;;;;;13.70;81.00;;;;;;5045841;28;20368;-82
2022/09/16 01:57:53;;;;;;;;;;;13.80;80.60;;;;;;5050573;28;19913;-82
2022/09/16 02:00:18;;;;;;;;;;;13.80;80.70;;;;;;5047941;28;19968;-82
2022/09/16 02:02:44;;;;;;;;;;;13.80;80.70;;;;;;5050001;28;20390;-82
2022/09/16 02:05:29;;;;;;;;;;;13.80;80.70;;;;;;5051289;28;19999;-83
2022/09/16 02:08:04;;;;;;;;;;;13.80;80.80;;;;;;5040477;28;20375;-82
2022/09/16 02:10:32;;;;;;;;;;;13.80;80.50;;;;;;5044802;28;19962;-82
2022/09/16 02:13:01;;;;;;;;;;;13.80;80.90;;;;;;5050748;28;19912;-82
2022/09/16 02:15:27;;;;;;;;;;;13.80;80.80;;;;;;5048484;28;19959;-82
2022/09/16 02:17:56;;;;;;;;;;;13.80;81.10;;;;;;5049435;28;20015;-82
2022/09/16 02:20:24;;;;;;;;;;;13.90;80.40;;;;;;5035508;28;20399;-82
2022/09/16 02:22:53;;;;;;;;;;;13.90;80.30;;;;;;5050431;28;20292;-83
2022/09/16 02:25:20;;;;;;;;;;;13.80;81.00;;;;;;5050062;28;19936;-82
2022/09/16 02:27:48;;;;;;;;;;;13.70;81.30;;;;;;5062388;28;19909;-82
2022/09/16 02:30:16;;;;;;;;;;;13.80;81.20;;;;;;5051964;28;19952;-83
2022/09/16 02:32:46;;;;;;;;;;;13.80;80.90;;;;;;5049529;28;19920;-83
2022/09/16 02:35:14;;;;;;;;;;;13.80;80.90;;;;;;5041445;28;19939;-83
2022/09/16 02:37:43;;;;;;;;;;;14.00;80.30;;;;;;5051725;28;19976;-83
2022/09/16 02:40:14;;;;;;;;;;;13.90;80.80;;;;;;5048070;28;20441;-83
2022/09/16 02:42:40;;;;;;;;;;;13.80;81.10;;;;;;5049952;28;20303;-83
2022/09/16 02:45:06;;;;;;;;;;;13.80;81.00;;;;;;5050464;28;19964;-83
2022/09/16 02:47:35;;;;;;;;;;;13.80;81.00;;;;;;5048287;28;20008;-83
2022/09/16 02:50:16;;;;;;;;;;;13.90;80.50;;;;;;5052107;28;19967;-83
2022/09/16 02:52:41;;;;;;;;;;;13.90;80.40;;;;;;5059238;28;19919;-82
2022/09/16 02:55:18;;;;;;;;;;;13.80;80.90;;;;;;5051526;28;20011;-83
2022/09/16 02:57:43;;;;;;;;;;;13.80;80.50;;;;;;5044853;28;19919;-83
2022/09/16 03:00:09;;;;;;;;;;;13.80;80.80;;;;;;5047114;28;19924;-83
2022/09/16 03:02:34;;;;;;;;;;;13.80;80.50;;;;;;5038266;28;19928;-83
2022/09/16 03:05:00;;;;;;;;;;;13.70;81.00;;;;;;5043990;28;20338;-83
2022/09/16 03:07:26;;;;;;;;;;;13.70;81.00;;;;;;5048464;28;19936;-83
2022/09/16 03:09:51;;;;;;;;;;;13.60;81.60;;;;;;5050670;28;19909;-83
2022/09/16 03:12:50;;;;;;;;;;;13.60;81.40;;;;;;5049669;28;19962;-82
2022/09/16 03:15:35;;;;;;;;;;;13.70;81.00;;;;;;5016259;28;19924;-82
2022/09/16 03:18:19;;;;;;;;;;;13.70;81.30;;;;;;5050065;28;19999;-83
2022/09/16 03:20:44;;;;;;;;;;;13.60;80.90;;;;;;5045503;28;19921;-82
2022/09/16 03:23:10;;;;;;;;;;;13.60;81.10;;;;;;5047023;28;19916;-83
2022/09/16 03:25:47;;;;;;;;;;;13.60;80.80;;;;;;5039902;28;19923;-82
2022/09/16 03:28:18;;;;;;;;;;;13.50;80.90;;;;;;5046880;28;20466;-83
2022/09/16 03:30:51;;;;;;;;;;;13.50;81.40;;;;;;5042628;28;19916;-83
2022/09/16 03:33:28;;;;;;;;;;;13.50;81.50;;;;;;5046998;28;20421;-83
2022/09/16 03:35:56;;;;;;;;;;;13.60;81.00;;;;;;5049050;28;19912;-83
2022/09/16 03:38:22;;;;;;;;;;;13.60;81.20;;;;;;5044613;28;19913;-83
2022/09/16 03:40:49;;;;;;;;;;;13.60;81.20;;;;;;5052587;28;20397;-83
2022/09/16 03:43:15;;;;;;;;;;;13.60;81.20;;;;;;5053770;28;19924;-83
2022/09/16 03:45:41;;;;;;;;;;;13.60;81.20;;;;;;5051722;28;19914;-83
2022/09/16 03:48:08;;;;;;;;;;;13.60;80.90;;;;;;5049918;28;19927;-83
2022/09/16 03:50:33;;;;;;;;;;;13.60;80.90;;;;;;5048579;28;20007;-83
2022/09/16 03:52:58;;;;;;;;;;;13.50;81.10;;;;;;5074904;28;19921;-83
2022/09/16 03:55:24;;;;;;;;;;;13.50;80.90;;;;;;5064241;28;19913;-83
2022/09/16 03:57:51;;;;;;;;;;;13.50;81.00;;;;;;5064067;28;19916;-82
2022/09/16 04:00:16;;;;;;;;;;;13.40;81.70;;;;;;5057926;28;19913;-83
2022/09/16 04:02:42;;;;;;;;;;;13.40;81.30;;;;;;5053528;28;20405;-83
2022/09/16 04:05:07;;;;;;;;;;;13.40;81.30;;;;;;5052678;28;19920;-82
2022/09/16 04:07:33;;;;;;;;;;;13.50;81.40;;;;;;5047682;28;20372;-81
2022/09/16 04:09:59;;;;;;;;;;;13.50;80.90;;;;;;5054436;28;20007;-82
2022/09/16 04:12:24;;;;;;;;;;;13.50;81.30;;;;;;5057631;28;19916;-83
2022/09/16 04:14:50;;;;;;;;;;;13.50;81.10;;;;;;5055077;28;19913;-81
2022/09/16 04:17:15;;;;;;;;;;;13.50;81.10;;;;;;5051097;28;19916;-82
2022/09/16 04:19:41;;;;;;;;;;;13.50;80.80;;;;;;5054011;28;19913;-82
2022/09/16 04:22:06;;;;;;;;;;;13.50;81.20;;;;;;5050105;28;19921;-82
2022/09/16 04:24:31;;;;;;;;;;;13.40;81.10;;;;;;5051904;28;20095;-83
2022/09/16 04:26:57;;;;;;;;;;;13.40;81.30;;;;;;5052595;28;19924;-83
2022/09/16 04:29:22;;;;;;;;;;;13.40;81.60;;;;;;5054579;28;19926;-83
2022/09/16 04:31:48;;;;;;;;;;;13.40;81.70;;;;;;5050950;28;19927;-83
2022/09/16 04:34:13;;;;;;;;;;;13.40;81.70;;;;;;5049260;28;19959;-82
2022/09/16 04:36:39;;;;;;;;;;;13.30;81.80;;;;;;5048026;28;19921;-82
2022/09/16 04:39:05;;;;;;;;;;;13.40;81.40;;;;;;5050166;28;19916;-82
2022/09/16 04:41:30;;;;;;;;;;;13.40;81.80;;;;;;5054154;28;19919;-82
2022/09/16 04:43:57;;;;;;;;;;;13.30;81.70;;;;;;5053450;28;19912;-82
2022/09/16 04:46:26;;;;;;;;;;;13.40;81.70;;;;;;5052864;28;19913;-81
2022/09/16 04:48:52;;;;;;;;;;;13.40;81.30;;;;;;5052419;28;20380;-81
2022/09/16 04:51:18;;;;;;;;;;;13.30;81.90;;;;;;5050659;28;19920;-81
2022/09/16 04:53:44;;;;;;;;;;;13.40;81.30;;;;;;5053178;28;20368;-82
2022/09/16 04:56:15;;;;;;;;;;;13.40;81.00;;;;;;5050102;28;19913;-81
2022/09/16 04:58:41;;;;;;;;;;;13.50;80.70;;;;;;5052650;28;19943;-81
2022/09/16 05:01:11;;;;;;;;;;;13.40;81.00;;;;;;5052109;28;19957;-81
2022/09/16 05:03:37;;;;;;;;;;;13.40;80.60;;;;;;5049633;28;20008;-81
2022/09/16 05:06:09;;;;;;;;;;;13.50;80.40;;;;;;5051763;28;19913;-81
2022/09/16 05:08:35;;;;;;;;;;;13.30;80.80;;;;;;5045436;28;20772;-80
2022/09/16 05:11:02;;;;;;;;;;;13.30;81.10;;;;;;5051962;28;19963;-81
2022/09/16 05:13:27;;;;;;;;;;;13.20;80.70;;;;;;5046550;28;19920;-81
2022/09/16 05:15:53;;;;;;;;;;;13.30;81.10;;;;;;5050987;28;20375;-81
2022/09/16 05:18:18;;;;;;;;;;;13.30;80.90;;;;;;5052628;28;20348;-80
2022/09/16 05:20:43;;;;;;;;;;;13.40;81.00;;;;;;5069381;28;19922;-82
2022/09/16 05:23:09;;;;;;;;;;;13.30;80.70;;;;;;5050573;28;19917;-82
2022/09/16 05:25:35;;;;;;;;;;;13.40;80.40;;;;;;5049903;28;19920;-83
2022/09/16 05:28:01;;;;;;;;;;;13.50;80.70;;;;;;5053743;28;20387;-82
2022/09/16 05:30:26;;;;;;;;;;;13.50;80.50;;;;;;5052531;28;19927;-81
2022/09/16 05:32:53;;;;;;;;;;;13.50;80.50;;;;;;5052273;28;19948;-82
2022/09/16 05:35:18;;;;;;;;;;;13.50;80.90;;;;;;5051513;28;19920;-81
2022/09/16 05:37:44;;;;;;;;;;;13.50;80.80;;;;;;5054926;28;19909;-83
2022/09/16 05:40:09;;;;;;;;;;;13.50;80.60;;;;;;5047587;28;19913;-82
2022/09/16 05:42:35;;;;;;;;;;;13.50;80.50;;;;;;5045891;28;19921;-81
2022/09/16 05:45:00;;;;;;;;;;;13.50;80.10;;;;;;5053348;28;19928;-82
2022/09/16 05:47:26;;;;;;;;;;;13.50;79.60;;;;;;5051153;28;19917;-79
2022/09/16 05:49:53;;;;;;;;;;;13.40;79.70;;;;;;5051427;28;19920;-80
2022/09/16 05:52:19;;;;;;;;;;;13.40;79.90;;;;;;5049411;28;19920;-79
2022/09/16 05:54:44;;;;;;;;;;;13.30;80.40;;;;;;5053762;28;19971;-80
2022/09/16 05:57:10;;;;;;;;;;;13.20;80.80;;;;;;5050079;28;19966;-80
2022/09/16 05:59:35;;;;;;;;;;;13.20;80.50;;;;;;5052834;28;19920;-81
2022/09/16 06:02:00;;;;;;;;;;;13.30;80.80;;;;;;5051750;28;20349;-82
2022/09/16 06:04:26;;;;;;;;;;;13.40;80.30;;;;;;5044477;28;19919;-80
2022/09/16 06:06:51;;;;;;;;;;;13.40;80.20;;;;;;5046483;28;19913;-81
2022/09/16 06:09:18;;;;;;;;;;;13.50;80.00;;;;;;5043827;28;19920;-81
2022/09/16 06:11:45;;;;;;;;;;;13.60;79.20;;;;;;5052004;28;19924;-82
2022/09/16 06:14:11;;;;;;;;;;;13.60;78.80;;;;;;5062924;28;19995;-83
2022/09/16 06:16:37;;;;;;;;;;;13.60;78.90;;;;;;5070309;28;19963;-83
2022/09/16 06:19:04;;;;;;;;;;;13.70;78.40;;;;;;5067793;28;19916;-84
2022/09/16 06:21:30;;;;;;;;;;;13.80;78.10;;;;;;5058662;28;19920;-83
2022/09/16 06:23:55;;;;;;;;;;;13.70;78.50;;;;;;5053295;28;19912;-84
2022/09/16 06:26:23;;;;;;;;;;;13.60;79.20;;;;;;5057771;28;19917;-84
2022/09/16 06:28:49;;;;;;;;;;;13.60;79.00;;;;;;5054732;28;20062;-85
2022/09/16 06:31:16;;;;;;;;;;;13.60;79.20;;;;;;5047240;28;20271;-81
2022/09/16 06:33:42;;;;;;;;;;;13.60;79.10;;;;;;5046422;28;19959;-81
2022/09/16 06:36:11;;;;;;;;;;;13.60;79.20;;;;;;5047516;28;20524;-82
2022/09/16 06:38:37;;;;;;;;;;;13.80;78.70;;;;;;5049846;28;20339;-82
2022/09/16 06:41:04;;;;;;;;;;;13.90;78.30;;;;;;5047231;28;19921;-82
2022/09/16 06:43:30;;;;;;;;;;;13.90;78.50;;;;;;5048885;28;19913;-82
2022/09/16 06:45:59;;;;;;;;;;;14.00;78.00;;;;;;5047127;28;20337;-82
2022/09/16 06:48:26;;;;;;;;;;;14.00;77.70;;;;;;5033268;28;19920;-83
2022/09/16 06:51:02;;;;;;;;;;;14.00;77.90;;;;;;5046909;28;20067;-84
2022/09/16 06:53:28;;;;;;;;;;;14.00;77.30;;;;;;5068032;28;19921;-84
2022/09/16 06:55:54;;;;;;;;;;;14.10;77.30;;;;;;5043649;28;19909;-82
2022/09/16 06:58:19;;;;;;;;;;;14.00;77.70;;;;;;5045678;28;20302;-82
2022/09/16 07:00:45;;;;;;;;;;;14.00;77.80;;;;;;5052986;28;19917;-84
2022/09/16 07:03:10;;;;;;;;;;;14.00;78.50;;;;;;5042863;28;20046;-84
2022/09/16 07:05:36;;;;;;;;;;;14.10;77.80;;;;;;5048257;28;19913;-81
2022/09/16 07:08:01;;;;;;;;;;;14.10;77.80;;;;;;5048666;28;20347;-82
2022/09/16 07:10:27;;;;;;;;;;;14.10;78.00;;;;;;5046078;28;20133;-81
2022/09/16 07:12:52;;;;;;;;;;;14.10;77.20;;;;;;5042568;28;19921;-81
2022/09/16 07:15:18;;;;;;;;;;;14.10;77.90;;;;;;5043192;28;19932;-81
2022/09/16 07:17:43;;;;;;;;;;;14.10;77.30;;;;;;5041319;28;19916;-81
2022/09/16 07:20:09;;;;;;;;;;;14.20;77.10;;;;;;5046240;28;19923;-81
2022/09/16 07:22:34;;;;;;;;;;;14.10;77.30;;;;;;5045265;28;19921;-80
2022/09/16 07:27:23;;;;;;;;;;;14.20;77.00;;;;;;5085036;27;1889849;-79
2022/09/16 07:29:48;;;;;;;;;;;14.40;76.20;;;;;;5121489;27;20002;-78
2022/09/16 07:32:14;;;;;;;;;;;14.30;76.40;;;;;;5119046;27;19962;-82
2022/09/16 07:34:40;;;;;;;;;;;14.20;77.00;;;;;;5121248;27;19911;-81
2022/09/16 07:37:05;;;;;;;;;;;14.30;77.30;;;;;;5124707;28;19944;-81
2022/09/16 07:39:30;;;;;;;;;;;14.30;76.90;;;;;;5125080;27;19918;-80
2022/09/16 07:41:56;;;;;;;;;;;14.20;77.50;;;;;;5109706;28;20299;-79
2022/09/16 07:44:21;;;;;;;;;;;14.30;76.40;;;;;;5129029;28;19960;-80
2022/09/16 07:46:49;;;;;;;;;;;14.30;75.70;;;;;;5098874;28;19912;-80
2022/09/16 07:49:15;;;;;;;;;;;14.40;75.50;;;;;;5113176;28;19915;-79
2022/09/16 07:51:41;;;;;;;;;;;14.40;74.90;;;;;;5102140;28;19930;-79
2022/09/16 07:54:08;;;;;;;;;;;14.20;75.40;;;;;;5128250;28;20338;-80
2022/09/16 07:56:34;;;;;;;;;;;14.20;75.70;;;;;;5109752;28;20288;-80
2022/09/16 07:59:01;;;;;;;;;;;14.20;75.50;;;;;;5108939;28;19955;-80
2022/09/16 08:01:26;;;;;;;;;;;14.20;76.00;;;;;;5128245;28;19911;-80
2022/09/16 08:03:52;;;;;;;;;;;14.10;76.40;;;;;;5108973;28;19961;-79
2022/09/16 08:06:18;;;;;;;;;;;14.20;75.90;;;;;;5109071;28;19916;-79
2022/09/16 08:08:44;;;;;;;;;;;14.20;75.60;;;;;;5128107;28;19907;-80
2022/09/16 08:11:11;;;;;;;;;;;14.30;74.40;;;;;;5125685;28;20001;-80
2022/09/16 08:13:37;;;;;;;;;;;14.30;75.20;;;;;;5101469;28;19916;-80
2022/09/16 08:16:06;;;;;;;;;;;14.50;73.90;;;;;;5121891;28;20404;-80
2022/09/16 08:18:32;;;;;;;;;;;14.40;73.10;;;;;;5088073;28;20442;-79
2022/09/16 08:21:03;;;;;;;;;;;14.40;73.40;;;;;;5102124;28;19951;-80
2022/09/16 08:23:28;;;;;;;;;;;14.20;74.40;;;;;;5127309;28;19955;-82
2022/09/16 08:25:57;;;;;;;;;;;14.30;74.30;;;;;;5143639;28;19911;-80
2022/09/16 08:28:23;;;;;;;;;;;14.40;74.80;;;;;;5147579;28;19908;-79
2022/09/16 08:30:48;;;;;;;;;;;14.50;74.90;;;;;;5115502;28;20026;-80
2022/09/16 08:33:14;;;;;;;;;;;14.60;73.70;;;;;;5131376;28;19998;-81
2022/09/16 08:35:39;;;;;;;;;;;14.60;73.10;;;;;;5129143;28;19931;-80
2022/09/16 08:38:06;;;;;;;;;;;14.70;73.10;;;;;;5120987;28;19983;-80
2022/09/16 08:40:33;;;;;;;;;;;15.00;72.10;;;;;;5097926;28;19907;-80
2022/09/16 08:43:05;;;;;;;;;;;15.10;71.70;;;;;;5116539;28;19927;-80
2022/09/16 08:45:39;;;;;;;;;;;15.20;71.70;;;;;;5098079;28;19935;-80
2022/09/16 08:48:10;;;;;;;;;;;15.40;70.80;;;;;;5084940;28;19920;-80
2022/09/16 08:50:37;;;;;;;;;;;15.40;69.40;;;;;;5106221;28;19926;-80
2022/09/16 08:53:06;;;;;;;;;;;15.50;69.10;;;;;;5112164;28;19938;-81
2022/09/16 08:55:34;;;;;;;;;;;15.30;70.20;;;;;;5104690;28;19908;-82
2022/09/16 08:58:04;;;;;;;;;;;15.50;69.50;;;;;;5121753;28;20329;-81
2022/09/16 09:00:30;;;;;;;;;;;15.50;70.00;;;;;;5101636;28;19908;-82
2022/09/16 09:03:01;;;;;;;;;;;15.40;71.00;;;;;;5107828;28;20431;-81
2022/09/16 09:05:29;;;;;;;;;;;15.50;68.20;;;;;;5120270;28;19962;-81
2022/09/16 09:08:10;;;;;;;;;;;15.40;68.40;;;;;;5121053;28;19908;-81
2022/09/16 09:10:38;;;;;;;;;;;15.30;70.20;;;;;;5119886;28;19908;-82
2022/09/16 09:13:11;;;;;;;;;;;15.20;69.70;;;;;;5105115;28;19919;-81
2022/09/16 09:15:50;;;;;;;;;;;15.10;69.80;;;;;;5081965;28;19927;-81
2022/09/16 09:18:26;;;;;;;;;;;15.00;72.50;;;;;;5117066;28;19912;-81
2022/09/16 09:20:55;;;;;;;;;;;15.10;71.30;;;;;;5117416;28;19995;-82
2022/09/16 09:23:21;;;;;;;;;;;15.20;70.90;;;;;;5119017;28;20376;-82
2022/09/16 09:25:49;;;;;;;;;;;15.10;72.10;;;;;;5094400;28;19924;-82
2022/09/16 09:28:16;;;;;;;;;;;15.20;71.50;;;;;;5091776;28;19919;-81
2022/09/16 09:30:52;;;;;;;;;;;15.20;72.40;;;;;;5090726;28;19908;-81
2022/09/16 09:33:31;;;;;;;;;;;15.30;70.80;;;;;;5098587;28;19911;-82
2022/09/16 09:36:03;;;;;;;;;;;15.20;70.80;;;;;;5109105;28;20290;-82
2022/09/16 09:38:47;;;;;;;;;;;15.10;71.30;;;;;;5116043;28;19911;-82
2022/09/16 09:41:12;;;;;;;;;;;15.30;71.30;;;;;;5106876;28;20325;-81
2022/09/16 09:43:47;;;;;;;;;;;15.30;69.70;;;;;;5104658;28;19912;-81
2022/09/16 09:46:22;;;;;;;;;;;15.20;68.90;;;;;;5095729;28;19983;-81
2022/09/16 09:48:59;;;;;;;;;;;15.00;69.80;;;;;;5113339;28;19943;-81
2022/09/16 09:51:33;;;;;;;;;;;15.00;69.40;;;;;;5089373;28;19916;-82
2022/09/16 09:54:02;;;;;;;;;;;14.90;70.50;;;;;;5077851;28;19913;-81
2022/09/16 09:56:30;;;;;;;;;;;14.90;69.20;;;;;;5106285;28;19913;-81
2022/09/16 09:58:59;;;;;;;;;;;14.80;68.80;;;;;;5115143;28;20620;-81
2022/09/16 10:01:25;;;;;;;;;;;15.00;68.70;;;;;;5088475;28;19944;-81
2022/09/16 10:03:51;;;;;;;;;;;15.20;68.80;;;;;;5100408;28;19912;-82
2022/09/16 10:06:21;;;;;;;;;;;15.50;68.30;;;;;;5103529;28;20017;-83
2022/09/16 10:08:49;;;;;;;;;;;15.80;67.40;;;;;;5093777;28;19964;-85
2022/09/16 10:11:20;;;;;;;;;;;16.00;65.80;;;;;;5091425;28;19946;-83
2022/09/16 10:13:53;;;;;;;;;;;16.00;64.70;;;;;;5097724;28;20272;-84
2022/09/16 10:16:20;;;;;;;;;;;16.20;63.20;;;;;;5111351;28;20002;-85
2022/09/16 10:19:00;;;;;;;;;;;16.20;61.80;;;;;;5088779;28;19942;-81
2022/09/16 10:21:37;;;;;;;;;;;16.30;62.30;;;;;;5091904;28;19912;-81
2022/09/16 10:24:03;;;;;;;;;;;16.20;61.80;;;;;;5110331;28;20415;-83
2022/09/16 10:26:28;;;;;;;;;;;16.20;60.90;;;;;;5079598;28;19916;-82
2022/09/16 10:28:58;;;;;;;;;;;16.30;59.40;;;;;;5110318;28;20239;-83
2022/09/16 10:31:25;;;;;;;;;;;16.30;60.00;;;;;;5110704;28;20373;-85
2022/09/16 10:33:51;;;;;;;;;;;16.50;60.80;;;;;;5105087;28;19965;-83
2022/09/16 10:36:20;;;;;;;;;;;16.50;58.60;;;;;;5092347;28;19916;-82
2022/09/16 10:38:49;;;;;;;;;;;16.60;59.30;;;;;;5089039;28;19912;-83
2022/09/16 10:41:16;;;;;;;;;;;16.70;59.90;;;;;;5095169;28;19911;-83
2022/09/16 10:43:47;;;;;;;;;;;16.80;60.80;;;;;;5097733;28;19913;-84
2022/09/16 10:46:16;;;;;;;;;;;16.80;59.00;;;;;;5093229;28;20482;-83
2022/09/16 10:48:42;;;;;;;;;;;16.60;59.80;;;;;;5085792;28;20355;-82
2022/09/16 10:51:19;;;;;;;;;;;16.50;59.60;;;;;;5096091;28;20004;-81
2022/09/16 10:53:50;;;;;;;;;;;16.30;60.40;;;;;;5091617;28;20288;-80
2022/09/16 10:56:17;;;;;;;;;;;16.10;64.00;;;;;;5095494;28;19912;-80
2022/09/16 10:58:42;;;;;;;;;;;16.00;63.00;;;;;;5093845;28;19916;-80
2022/09/16 11:01:08;;;;;;;;;;;15.90;63.60;;;;;;5104098;28;19911;-81
2022/09/16 11:03:33;;;;;;;;;;;16.00;63.50;;;;;;5124538;28;19919;-81
2022/09/16 11:06:06;;;;;;;;;;;16.10;62.80;;;;;;5085190;28;19920;-82
2022/09/16 11:08:44;;;;;;;;;;;16.30;63.50;;;;;;5109470;28;20356;-80
2022/09/16 11:11:15;;;;;;;;;;;16.40;63.50;;;;;;5086854;28;19938;-83
2022/09/16 11:13:59;;;;;;;;;;;16.50;61.40;;;;;;5106178;28;20369;-80
2022/09/16 11:16:28;;;;;;;;;;;16.50;61.80;;;;;;5087791;28;19912;-81
2022/09/16 11:19:05;;;;;;;;;;;16.40;62.10;;;;;;5104326;28;19919;-79
2022/09/16 11:21:34;;;;;;;;;;;16.50;63.90;;;;;;5092827;28;19915;-80
2022/09/16 11:24:17;;;;;;;;;;;16.50;66.20;;;;;;5106765;28;19916;-79
2022/09/16 11:26:46;;;;;;;;;;;16.40;63.40;;;;;;5109865;28;19923;-84
2022/09/16 11:29:30;;;;;;;;;;;16.30;60.20;;;;;;5084775;28;20399;-81
2022/09/16 11:32:02;;;;;;;;;;;16.20;60.30;;;;;;5092218;28;19918;-81
2022/09/16 11:34:40;;;;;;;;;;;16.10;56.70;;;;;;5089027;28;19912;-80
2022/09/16 11:37:05;;;;;;;;;;;16.10;55.50;;;;;;5093148;28;19915;-79
2022/09/16 11:39:37;;;;;;;;;;;16.10;56.10;;;;;;5105526;28;19918;-80
2022/09/16 11:42:09;;;;;;;;;;;16.20;55.30;;;;;;5109393;28;20317;-80
2022/09/16 11:44:53;;;;;;;;;;;16.10;58.00;;;;;;5112341;28;20376;-79
2022/09/16 11:47:31;;;;;;;;;;;16.30;58.30;;;;;;5107399;28;20287;-79
2022/09/16 11:49:59;;;;;;;;;;;16.60;58.10;;;;;;5106251;28;20019;-79
2022/09/16 11:52:25;;;;;;;;;;;16.60;58.70;;;;;;5110587;28;19956;-80
2022/09/16 11:55:10;;;;;;;;;;;16.80;57.20;;;;;;5086598;28;20329;-80
2022/09/16 11:57:38;;;;;;;;;;;16.70;58.70;;;;;;5089296;22;19930;-77
2022/09/16 12:00:11;;;;;;;;;;;16.70;56.00;;;;;;5091263;28;19912;-77
2022/09/16 12:02:56;;;;;;;;;;;16.60;56.80;;;;;;5089995;28;19916;-76
2022/09/16 12:05:35;;;;;;;;;;;16.70;58.90;;;;;;5089439;28;19912;-76
2022/09/16 12:08:01;;;;;;;;;;;16.60;56.40;;;;;;5086444;28;20708;-77
2022/09/16 12:10:46;;;;;;;;;;;16.30;58.90;;;;;;5069904;28;19958;-77
2022/09/16 12:13:14;;;;;;;;;;;16.10;61.80;;;;;;5084145;28;19938;-77
2022/09/16 12:15:45;;;;;;;;;;;15.60;63.40;;;;;;5081219;28;19955;-77
2022/09/16 12:18:29;;;;;;;;;;;15.30;65.60;;;;;;5066732;28;19962;-77
2022/09/16 12:21:27;;;;;;;;;;;15.00;66.60;;;;;;5079206;28;20478;-78
2022/09/16 12:23:56;;;;;;;;;;;14.90;66.60;;;;;;5036280;28;19919;-77
2022/09/16 12:26:27;;;;;;;;;;;14.80;66.60;;;;;;5094441;28;19980;-77
2022/09/16 12:29:00;;;;;;;;;;;14.80;66.80;;;;;;5086281;28;19951;-77
2022/09/16 12:31:31;;;;;;;;;;;14.80;68.60;;;;;;5076366;28;20093;-76
2022/09/16 12:34:00;;;;;;;;;;;15.00;69.80;;;;;;5070255;28;19916;-77
2022/09/16 12:36:31;;;;;;;;;;;15.20;67.20;;;;;;5076826;28;19912;-77
2022/09/16 12:38:58;;;;;;;;;;;15.10;65.80;;;;;;5060298;28;19970;-76
2022/09/16 12:41:42;;;;;;;;;;;14.80;70.50;;;;;;5064602;28;20373;-77
2022/09/16 12:44:10;;;;;;;;;;;14.10;73.10;;;;;;5082465;28;19908;-76
2022/09/16 12:46:54;;;;;;;;;;;13.40;77.60;;;;;;5087659;28;19924;-77
2022/09/16 12:49:38;;;;;;;;;;;13.10;80.70;;;;;;5068143;28;19919;-77
2022/09/16 12:52:19;;;;;;;;;;;13.10;81.50;;;;;;5088219;28;19926;-78
2022/09/16 12:54:54;;;;;;;;;;;13.00;82.60;;;;;;5091762;28;20641;-77
2022/09/16 12:57:39;;;;;;;;;;;13.00;82.50;;;;;;5097307;28;19962;-79
2022/09/16 13:00:06;;;;;;;;;;;13.10;82.80;;;;;;5092149;28;19919;-78
2022/09/16 13:02:36;;;;;;;;;;;13.10;82.80;;;;;;5099235;28;19912;-78
2022/09/16 13:05:10;;;;;;;;;;;13.00;82.20;;;;;;5096647;28;20621;-78
2022/09/16 13:07:36;;;;;;;;;;;13.10;82.70;;;;;;5099373;28;19919;-78
2022/09/16 13:10:02;;;;;;;;;;;13.40;81.60;;;;;;5085549;28;20333;-79
2022/09/16 13:12:28;;;;;;;;;;;13.30;82.80;;;;;;5086255;28;19952;-80
2022/09/16 13:14:55;;;;;;;;;;;13.30;81.50;;;;;;5092564;28;19913;-79
2022/09/16 13:17:27;;;;;;;;;;;13.30;82.40;;;;;;5096920;28;19938;-79
2022/09/16 13:19:53;;;;;;;;;;;13.40;82.00;;;;;;5088217;28;19916;-78
2022/09/16 13:22:22;;;;;;;;;;;13.30;81.60;;;;;;5064911;28;20421;-77
2022/09/16 13:25:10;;;;;;;;;;;13.30;81.80;;;;;;5089743;28;20407;-78
2022/09/16 13:27:37;;;;;;;;;;;13.40;81.10;;;;;;5086321;28;19915;-78
2022/09/16 13:30:10;;;;;;;;;;;13.50;81.60;;;;;;5077617;28;19928;-78
2022/09/16 13:32:56;;;;;;;;;;;13.40;81.70;;;;;;5090399;28;20261;-83
2022/09/16 13:35:33;;;;;;;;;;;13.30;80.60;;;;;;5078467;28;19919;-78
2022/09/16 13:37:59;;;;;;;;;;;13.30;81.20;;;;;;5080164;28;20000;-78
2022/09/16 13:40:26;;;;;;;;;;;13.50;82.40;;;;;;5079561;28;19912;-78
2022/09/16 13:43:07;;;;;;;;;;;13.50;80.80;;;;;;5069474;28;19912;-80
2022/09/16 13:45:34;;;;;;;;;;;13.50;81.10;;;;;;5084386;28;19923;-78
2022/09/16 13:48:05;;;;;;;;;;;13.50;81.40;;;;;;5080007;28;19934;-77
2022/09/16 13:50:31;;;;;;;;;;;13.50;81.50;;;;;;5084443;28;19934;-77
2022/09/16 13:53:07;;;;;;;;;;;13.40;81.90;;;;;;5069268;28;20376;-77
2022/09/16 13:55:32;;;;;;;;;;;13.30;82.40;;;;;;5088534;28;19952;-77
2022/09/16 13:58:01;;;;;;;;;;;13.30;82.50;;;;;;5069276;28;19971;-77
2022/09/16 14:00:45;;;;;;;;;;;13.20;83.10;;;;;;5072352;28;19916;-77
2022/09/16 14:03:30;;;;;;;;;;;13.20;83.10;;;;;;5072640;28;19919;-77
2022/09/16 14:05:55;;;;;;;;;;;13.30;83.10;;;;;;5071880;28;19913;-77
2022/09/16 14:08:21;;;;;;;;;;;13.30;82.50;;;;;;5073131;28;19912;-78
2022/09/16 14:10:52;;;;;;;;;;;13.20;82.60;;;;;;5085118;28;19912;-77
2022/09/16 14:13:19;;;;;;;;;;;13.20;83.30;;;;;;5062209;28;20318;-77
2022/09/16 14:15:50;;;;;;;;;;;13.10;83.20;;;;;;5056422;28;19919;-77
2022/09/16 14:18:17;;;;;;;;;;;13.10;83.20;;;;;;5088125;28;19912;-77
2022/09/16 14:21:09;;;;;;;;;;;13.00;83.20;;;;;;5074157;28;19912;-77
2022/09/16 14:23:34;;;;;;;;;;;13.00;84.10;;;;;;5058122;28;19908;-78
2022/09/16 14:26:13;;;;;;;;;;;13.10;82.50;;;;;;5091561;28;19923;-76
2022/09/16 14:28:39;;;;;;;;;;;13.20;82.10;;;;;;5091246;28;19912;-77
2022/09/16 14:31:20;;;;;;;;;;;13.40;82.40;;;;;;5086224;28;20007;-77
2022/09/16 14:33:50;;;;;;;;;;;13.50;82.40;;;;;;5077889;28;19919;-77